Repto Daguey, Puerto Rico
Current Conditions -  °F | °C
As of 2:50 PM on Saturday 25 Oct 2014 (Local Time) from TJBQ Reporting Station
Broken Clouds Broken Clouds  
Wind Chill: 84°   Ceiling: 6500
Heat Index: 91°   Visibility: 10mi
Dew Point: 73°   Wind: 7mph
Humidity: 70%   Direction: 100°E
Pressure: 29.87"   Gusts: NA
Location:  18.2859°N, 67.1412°W
Report Text: TJBQ 251850Z 10006KT 10SM SCT044 SCT050 BKN065 29/23 A2987 RMK RWY08 - ATIS W
Loading
Personal Weather Stations






























Interactive Weather Map
Tropical Storm Tracking
New forecast layout! Learn more

10-Day Weather Forecast

Advertisements
Track Severe Weather on mobile